Time;durP1;ratioP1;P1;durP2;ratioP2;P2;SDS_P1;SDS_P2;PMS_P1;PMS_P2;Temp;Humidity;BMP_temperature;BMP_pressure;BME280_temperature;BME280_humidity;BME280_pressure;Samples;Min_cycle;Max_cycle;Signal;HPM_P1;HPM_P2
2024/01/30 00:01:51;;;;;;;34.22;26.25;;;5.40;95.50;;;;;;5058707;28;20036;-80
2024/01/30 00:04:17;;;;;;;33.65;25.45;;;5.40;95.50;;;;;;5076479;28;20404;-80
2024/01/30 00:06:46;;;;;;;35.08;25.55;;;5.40;95.60;;;;;;5093287;28;20515;-81
2024/01/30 00:09:12;;;;;;;35.13;26.08;;;5.30;95.70;;;;;;5059792;28;20071;-81
2024/01/30 00:11:38;;;;;;;33.67;24.98;;;5.30;95.70;;;;;;5076439;28;20232;-80
2024/01/30 00:14:04;;;;;;;34.45;24.88;;;5.30;95.70;;;;;;5043536;28;20043;-81
2024/01/30 00:16:30;;;;;;;36.97;26.13;;;5.30;95.70;;;;;;5076162;28;20068;-80
2024/01/30 00:18:56;;;;;;;37.15;26.38;;;5.30;95.70;;;;;;5059816;28;20075;-81
2024/01/30 00:21:22;;;;;;;34.45;26.80;;;5.30;95.80;;;;;;5093317;28;20039;-81
2024/01/30 00:23:48;;;;;;;37.15;28.02;;;5.30;96.00;;;;;;5076602;28;20090;-80
2024/01/30 00:26:14;;;;;;;34.70;26.98;;;5.30;95.90;;;;;;5076265;28;20048;-80
2024/01/30 00:28:41;;;;;;;33.45;26.58;;;5.30;95.90;;;;;;5092028;28;20071;-79
2024/01/30 00:31:07;;;;;;;40.00;27.95;;;5.30;95.90;;;;;;5075903;28;20040;-80
2024/01/30 00:33:33;;;;;;;38.53;28.15;;;5.30;95.90;;;;;;5075544;28;20047;-80
2024/01/30 00:35:58;;;;;;;40.13;29.58;;;5.30;95.90;;;;;;5075831;28;20048;-80
2024/01/30 00:38:24;;;;;;;35.63;28.33;;;5.30;95.90;;;;;;5059098;28;20036;-80
2024/01/30 00:40:50;;;;;;;39.83;28.63;;;5.20;96.00;;;;;;5092655;28;20044;-80
2024/01/30 00:43:16;;;;;;;40.50;27.05;;;5.20;96.00;;;;;;5059463;28;20051;-81
2024/01/30 00:45:43;;;;;;;41.55;30.75;;;5.20;96.00;;;;;;5075830;28;20665;-80
2024/01/30 00:48:09;;;;;;;38.63;28.30;;;5.30;96.00;;;;;;5080007;28;20130;-81
2024/01/30 00:50:34;;;;;;;34.25;27.33;;;5.20;96.00;;;;;;5079355;28;20127;-81
2024/01/30 00:53:00;;;;;;;38.88;29.02;;;5.20;96.10;;;;;;5079243;28;20077;-81
2024/01/30 00:55:26;;;;;;;35.15;27.33;;;5.10;96.20;;;;;;5079327;28;20040;-81
2024/01/30 00:57:51;;;;;;;40.95;28.73;;;5.10;96.10;;;;;;5096038;28;20043;-81
2024/01/30 01:00:17;;;;;;;34.97;27.45;;;5.20;96.20;;;;;;5096313;28;20035;-80
2024/01/30 01:02:43;;;;;;;36.25;28.15;;;5.10;96.20;;;;;;5095893;28;20031;-80
2024/01/30 01:05:09;;;;;;;37.35;27.77;;;5.20;96.30;;;;;;5078804;28;20032;-81
2024/01/30 01:07:35;;;;;;;39.10;27.25;;;5.10;96.30;;;;;;5095864;28;20040;-80
2024/01/30 01:10:01;;;;;;;37.45;27.60;;;5.10;96.30;;;;;;5095488;28;20046;-80
2024/01/30 01:12:27;;;;;;;36.25;26.40;;;5.10;96.30;;;;;;5112071;28;20039;-80
2024/01/30 01:14:52;;;;;;;38.72;29.30;;;5.00;96.30;;;;;;5095622;28;20050;-81
2024/01/30 01:17:18;;;;;;;39.35;29.20;;;5.00;96.40;;;;;;5095669;28;20100;-81
2024/01/30 01:19:44;;;;;;;36.25;27.65;;;5.00;96.30;;;;;;5071958;28;20442;-81
2024/01/30 01:22:10;;;;;;;41.63;28.63;;;5.00;96.40;;;;;;5091958;28;20044;-82
2024/01/30 01:24:36;;;;;;;34.80;26.80;;;5.00;96.40;;;;;;5058932;28;20036;-81
2024/01/30 01:27:02;;;;;;;40.08;29.98;;;5.00;96.40;;;;;;5092214;28;20071;-81
2024/01/30 01:29:30;;;;;;;36.83;27.92;;;5.00;96.40;;;;;;5060964;28;20079;-81
2024/01/30 01:31:56;;;;;;;43.00;29.73;;;5.00;96.60;;;;;;5112577;28;20040;-81
2024/01/30 01:34:23;;;;;;;36.65;28.30;;;5.00;96.40;;;;;;5112320;28;20514;-82
2024/01/30 01:36:49;;;;;;;39.10;27.85;;;5.00;96.50;;;;;;5095810;28;20043;-82
2024/01/30 01:39:15;;;;;;;37.67;28.08;;;5.00;96.80;;;;;;5095568;28;20122;-82
2024/01/30 01:41:41;;;;;;;39.17;28.65;;;5.00;96.60;;;;;;5112728;28;20085;-82
2024/01/30 01:44:07;;;;;;;41.58;28.45;;;5.10;96.50;;;;;;5095476;28;20043;-81
2024/01/30 01:46:34;;;;;;;41.92;28.60;;;5.00;96.60;;;;;;5090748;28;20067;-82
2024/01/30 01:49:05;;;;;;;42.40;29.52;;;5.10;96.80;;;;;;5092313;28;20388;-81
2024/01/30 01:51:33;;;;;;;37.97;27.23;;;5.20;97.40;;;;;;5075152;28;20090;-81
2024/01/30 01:54:03;;;;;;;40.90;29.58;;;5.30;97.20;;;;;;5075355;28;20445;-81
2024/01/30 01:56:30;;;;;;;41.58;30.40;;;5.30;97.40;;;;;;5075040;28;20044;-82
2024/01/30 01:58:59;;;;;;;43.97;28.17;;;5.40;97.40;;;;;;5092249;28;20411;-81
2024/01/30 02:01:27;;;;;;;39.42;28.67;;;5.50;97.40;;;;;;5092028;28;20084;-81
2024/01/30 02:03:52;;;;;;;36.00;26.55;;;5.50;97.60;;;;;;5075041;28;20127;-82
2024/01/30 02:06:19;;;;;;;41.15;27.33;;;5.60;97.90;;;;;;5058397;28;20173;-81
2024/01/30 02:08:44;;;;;;;45.22;30.85;;;5.60;97.80;;;;;;5091850;28;20484;-82
2024/01/30 02:11:11;;;;;;;40.78;28.85;;;5.70;97.60;;;;;;5058314;28;20055;-81
2024/01/30 02:13:37;;;;;;;38.25;29.35;;;5.70;97.90;;;;;;5075145;28;20044;-81
2024/01/30 02:16:02;;;;;;;41.28;28.98;;;5.70;97.70;;;;;;5075045;28;20043;-81
2024/01/30 02:18:28;;;;;;;37.70;27.48;;;5.90;98.00;;;;;;5074936;28;20385;-81
2024/01/30 02:20:58;;;;;;;37.40;27.17;;;5.90;97.90;;;;;;5074667;28;20040;-82
2024/01/30 02:23:25;;;;;;;42.08;28.60;;;5.90;98.00;;;;;;5074612;28;20101;-81
2024/01/30 02:25:52;;;;;;;37.05;28.60;;;6.00;97.90;;;;;;5061866;28;20043;-82
2024/01/30 02:28:19;;;;;;;41.22;29.15;;;6.00;98.10;;;;;;5095340;28;20127;-81
2024/01/30 02:30:46;;;;;;;39.17;28.10;;;6.10;98.10;;;;;;5078419;28;20044;-81
2024/01/30 02:33:12;;;;;;;37.22;27.08;;;6.10;97.70;;;;;;5113971;28;20051;-81
2024/01/30 02:35:39;;;;;;;40.10;27.92;;;6.10;97.90;;;;;;5099045;28;20109;-81
2024/01/30 02:38:05;;;;;;;40.70;27.73;;;6.10;97.90;;;;;;5098753;28;20483;-81
2024/01/30 02:40:31;;;;;;;40.97;26.73;;;6.10;98.00;;;;;;5098785;28;20403;-82
2024/01/30 02:42:58;;;;;;;35.17;25.85;;;6.10;97.70;;;;;;5098573;28;20114;-81
2024/01/30 02:45:24;;;;;;;37.88;28.08;;;6.10;97.60;;;;;;5098884;28;20043;-81
2024/01/30 02:47:50;;;;;;;36.88;28.08;;;6.10;97.80;;;;;;5081414;28;20395;-81
2024/01/30 02:50:16;;;;;;;34.40;25.70;;;6.20;97.60;;;;;;5081651;28;20043;-82
2024/01/30 02:52:43;;;;;;;37.63;26.48;;;6.20;97.90;;;;;;5064889;28;20044;-82
2024/01/30 02:55:10;;;;;;;36.20;26.25;;;6.20;97.80;;;;;;5098374;28;20046;-81
2024/01/30 02:57:36;;;;;;;36.25;27.20;;;6.20;97.60;;;;;;5115330;28;20169;-81
2024/01/30 03:00:03;;;;;;;36.95;25.85;;;6.20;97.60;;;;;;5098248;28;20126;-81
2024/01/30 03:02:29;;;;;;;35.22;25.25;;;6.10;97.50;;;;;;5098129;28;20055;-81
2024/01/30 03:04:55;;;;;;;35.00;25.75;;;6.20;97.60;;;;;;5097647;28;20035;-82
2024/01/30 03:07:20;;;;;;;36.58;27.45;;;6.20;97.40;;;;;;5098123;28;20043;-81
2024/01/30 03:09:46;;;;;;;32.30;23.88;;;6.10;97.50;;;;;;5081245;28;20040;-82
2024/01/30 03:12:12;;;;;;;36.50;25.05;;;6.10;97.40;;;;;;5115059;28;20035;-82
2024/01/30 03:14:38;;;;;;;33.95;25.38;;;6.10;97.40;;;;;;5064680;28;20122;-81
2024/01/30 03:17:03;;;;;;;37.30;26.35;;;6.10;97.50;;;;;;5097968;28;20035;-82
2024/01/30 03:19:29;;;;;;;34.75;25.35;;;6.10;97.60;;;;;;5081047;28;20075;-82
2024/01/30 03:21:55;;;;;;;34.25;24.83;;;6.10;97.40;;;;;;5081025;28;20126;-82
2024/01/30 03:24:20;;;;;;;34.45;24.85;;;6.10;97.60;;;;;;5063463;28;20044;-81
2024/01/30 03:26:46;;;;;;;33.30;25.25;;;6.10;97.60;;;;;;5077796;28;20036;-81
2024/01/30 03:29:12;;;;;;;35.83;26.20;;;6.10;97.50;;;;;;5044185;28;20043;-82
2024/01/30 03:31:39;;;;;;;34.00;25.80;;;6.10;97.40;;;;;;5077756;28;20044;-82
2024/01/30 03:34:05;;;;;;;34.83;24.52;;;6.10;97.30;;;;;;5095470;28;20052;-81
2024/01/30 03:36:32;;;;;;;31.80;23.63;;;6.10;97.40;;;;;;5094100;28;20046;-81
2024/01/30 03:38:58;;;;;;;34.50;24.40;;;6.10;97.30;;;;;;5061246;28;20044;-81
2024/01/30 03:41:24;;;;;;;32.00;24.85;;;6.00;97.30;;;;;;5077256;28;20086;-81
2024/01/30 03:43:50;;;;;;;35.42;25.00;;;6.00;97.30;;;;;;5077183;28;20079;-81
2024/01/30 03:46:16;;;;;;;37.22;26.25;;;6.00;97.30;;;;;;5077362;28;20040;-82
2024/01/30 03:48:42;;;;;;;32.88;24.63;;;6.00;97.50;;;;;;5093899;28;20404;-81
2024/01/30 03:51:08;;;;;;;34.33;25.42;;;6.00;97.50;;;;;;5070889;28;20040;-82
2024/01/30 03:53:34;;;;;;;34.45;24.05;;;6.00;97.40;;;;;;5060582;28;20036;-83
2024/01/30 03:55:59;;;;;;;30.75;23.67;;;6.00;97.40;;;;;;5076922;28;20613;-81
2024/01/30 03:58:25;;;;;;;30.60;23.40;;;6.10;97.70;;;;;;5060278;28;20040;-82
2024/01/30 04:00:51;;;;;;;32.00;23.73;;;6.10;97.90;;;;;;5043814;28;20392;-82
2024/01/30 04:03:17;;;;;;;36.67;24.42;;;6.20;97.80;;;;;;5093548;28;20040;-83
2024/01/30 04:05:43;;;;;;;34.03;23.27;;;6.20;97.90;;;;;;5076347;28;20047;-82
2024/01/30 04:08:09;;;;;;;30.95;22.45;;;6.20;97.60;;;;;;5076710;28;20048;-82
2024/01/30 04:10:35;;;;;;;32.58;22.83;;;6.30;97.80;;;;;;5059976;28;20076;-81
2024/01/30 04:13:00;;;;;;;31.17;23.02;;;6.30;97.80;;;;;;5076498;28;20078;-82
2024/01/30 04:15:27;;;;;;;30.85;24.20;;;6.30;97.60;;;;;;5043355;28;20044;-82
2024/01/30 04:17:53;;;;;;;28.65;21.90;;;6.40;97.80;;;;;;5059424;28;20032;-82
2024/01/30 04:20:19;;;;;;;31.88;22.42;;;6.40;97.60;;;;;;5076068;28;20214;-82
2024/01/30 04:22:45;;;;;;;31.50;23.73;;;6.40;97.60;;;;;;5076353;28;20047;-82
2024/01/30 04:25:14;;;;;;;29.88;21.52;;;6.40;97.80;;;;;;5075989;28;20040;-82
2024/01/30 04:27:40;;;;;;;31.52;23.02;;;6.40;97.60;;;;;;5092845;28;20127;-81
2024/01/30 04:30:06;;;;;;;30.55;22.65;;;6.40;97.50;;;;;;5093038;28;20079;-82
2024/01/30 04:32:33;;;;;;;29.95;21.85;;;6.40;97.70;;;;;;5043712;28;20089;-81
2024/01/30 04:34:58;;;;;;;29.02;21.48;;;6.40;97.70;;;;;;5092194;28;20059;-81
2024/01/30 04:37:25;;;;;;;29.17;21.65;;;6.40;97.60;;;;;;5113628;28;20043;-82
2024/01/30 04:39:51;;;;;;;33.88;22.98;;;6.40;97.60;;;;;;5062935;28;20067;-82
2024/01/30 04:42:17;;;;;;;34.53;22.50;;;6.40;97.60;;;;;;5079547;28;20051;-82
2024/01/30 04:44:43;;;;;;;27.80;21.58;;;6.40;97.60;;;;;;5079053;28;20040;-81
2024/01/30 04:47:11;;;;;;;30.98;22.83;;;6.40;97.60;;;;;;5096089;28;20039;-82
2024/01/30 04:49:39;;;;;;;30.58;22.08;;;6.40;97.50;;;;;;5079966;28;20099;-81
2024/01/30 04:52:04;;;;;;;30.42;22.38;;;6.40;97.50;;;;;;5112895;28;20035;-82
2024/01/30 04:54:30;;;;;;;30.92;22.70;;;6.40;97.60;;;;;;5079265;28;20088;-82
2024/01/30 04:56:56;;;;;;;31.25;22.75;;;6.40;97.60;;;;;;5096126;28;20081;-82
2024/01/30 04:59:21;;;;;;;28.25;21.65;;;6.30;97.50;;;;;;5096059;28;20114;-82
2024/01/30 05:01:47;;;;;;;30.90;22.17;;;6.40;97.60;;;;;;5096041;28;20035;-82
2024/01/30 05:04:13;;;;;;;30.00;22.17;;;6.40;97.50;;;;;;5095913;28;20044;-82
2024/01/30 05:06:38;;;;;;;25.73;20.42;;;6.40;97.40;;;;;;5079336;28;20040;-82
2024/01/30 05:09:04;;;;;;;30.55;22.10;;;6.40;97.60;;;;;;5062387;28;20043;-82
2024/01/30 05:11:30;;;;;;;28.70;21.15;;;6.40;97.50;;;;;;5078990;28;20047;-82
2024/01/30 05:13:56;;;;;;;28.70;20.88;;;6.40;97.60;;;;;;5095918;28;20031;-82
2024/01/30 05:16:22;;;;;;;29.00;21.90;;;6.40;97.40;;;;;;5095761;28;20039;-81
2024/01/30 05:18:48;;;;;;;33.53;20.73;;;6.40;97.50;;;;;;5095803;28;20046;-82
2024/01/30 05:21:14;;;;;;;29.88;20.35;;;6.40;97.40;;;;;;5112721;28;20043;-82
2024/01/30 05:23:41;;;;;;;28.75;20.52;;;6.40;97.40;;;;;;5099699;28;20090;-81
2024/01/30 05:26:08;;;;;;;28.85;21.42;;;6.40;97.30;;;;;;5059269;28;20391;-82
2024/01/30 05:28:33;;;;;;;27.67;20.60;;;6.40;97.50;;;;;;5075768;28;20040;-82
2024/01/30 05:30:59;;;;;;;27.83;21.40;;;6.40;97.50;;;;;;5092121;28;20507;-81
2024/01/30 05:33:25;;;;;;;29.60;21.60;;;6.40;97.50;;;;;;5059858;28;20040;-81
2024/01/30 05:35:54;;;;;;;25.77;20.38;;;6.40;97.40;;;;;;5095361;28;20062;-82
2024/01/30 05:38:20;;;;;;;25.38;20.77;;;6.40;97.50;;;;;;5095614;28;20032;-82
2024/01/30 05:40:46;;;;;;;27.70;19.75;;;6.40;97.50;;;;;;5095261;28;20043;-82
2024/01/30 05:43:12;;;;;;;25.50;19.83;;;6.40;97.40;;;;;;5095336;28;20043;-82
2024/01/30 05:45:37;;;;;;;27.77;19.75;;;6.40;97.50;;;;;;5094892;28;20047;-81
2024/01/30 05:48:04;;;;;;;27.00;19.80;;;6.40;97.40;;;;;;5095088;28;20510;-82
2024/01/30 05:50:30;;;;;;;27.25;19.10;;;6.50;97.50;;;;;;5095022;28;20511;-81
2024/01/30 05:52:56;;;;;;;26.27;18.63;;;6.50;97.60;;;;;;5079162;28;20051;-82
2024/01/30 05:55:21;;;;;;;27.95;20.67;;;6.50;97.40;;;;;;5074769;28;20036;-81
2024/01/30 05:57:47;;;;;;;28.75;20.83;;;6.50;97.40;;;;;;5074696;28;20036;-81
2024/01/30 06:00:13;;;;;;;28.80;20.45;;;6.50;97.50;;;;;;5077231;28;20039;-82
2024/01/30 06:02:39;;;;;;;29.90;20.08;;;6.50;97.40;;;;;;5061952;28;20046;-81
2024/01/30 06:05:05;;;;;;;25.75;19.90;;;6.50;97.30;;;;;;5078513;28;20122;-82
2024/01/30 06:07:31;;;;;;;28.38;18.95;;;6.50;97.30;;;;;;5090714;28;20038;-81
2024/01/30 06:09:57;;;;;;;25.70;18.58;;;6.50;97.30;;;;;;5098271;28;20453;-81
2024/01/30 06:12:22;;;;;;;26.15;19.45;;;6.50;97.30;;;;;;5098196;28;20063;-81
2024/01/30 06:14:48;;;;;;;24.45;19.15;;;6.50;97.30;;;;;;5097618;28;20402;-82
2024/01/30 06:17:13;;;;;;;26.48;19.90;;;6.50;97.40;;;;;;5098092;28;20063;-83
2024/01/30 06:19:39;;;;;;;24.38;18.63;;;6.50;97.30;;;;;;5115912;28;20035;-81
2024/01/30 06:22:05;;;;;;;27.10;19.92;;;6.50;97.40;;;;;;5098505;28;20384;-81
2024/01/30 06:24:31;;;;;;;24.98;18.65;;;6.50;97.40;;;;;;5098770;28;20032;-81
2024/01/30 06:26:56;;;;;;;24.13;18.55;;;6.50;97.50;;;;;;5081569;28;20479;-82
2024/01/30 06:29:24;;;;;;;28.45;19.30;;;6.60;97.50;;;;;;5081702;28;20089;-81
2024/01/30 06:31:50;;;;;;;23.92;18.35;;;6.60;97.50;;;;;;5065300;28;20089;-80
2024/01/30 06:34:16;;;;;;;24.90;18.25;;;6.60;97.50;;;;;;5098139;28;20040;-81
2024/01/30 06:36:42;;;;;;;25.52;18.92;;;6.60;97.40;;;;;;5098679;28;20093;-82
2024/01/30 06:39:08;;;;;;;22.50;18.08;;;6.60;97.40;;;;;;5098534;28;20502;-81
2024/01/30 06:41:34;;;;;;;27.33;19.00;;;6.60;97.50;;;;;;5098608;28;20043;-81
2024/01/30 06:44:02;;;;;;;25.95;18.98;;;6.60;97.40;;;;;;5081620;28;20108;-82
2024/01/30 06:46:27;;;;;;;23.58;17.92;;;6.70;97.50;;;;;;5098202;28;20130;-82
2024/01/30 06:48:53;;;;;;;25.38;20.08;;;6.70;97.50;;;;;;5081477;28;20150;-82
2024/01/30 06:51:19;;;;;;;25.38;20.17;;;6.70;97.40;;;;;;5081248;28;20543;-81
2024/01/30 06:53:44;;;;;;;26.73;19.02;;;6.70;97.40;;;;;;5098137;28;20035;-82
2024/01/30 06:56:10;;;;;;;26.02;18.90;;;6.70;97.40;;;;;;5081301;28;20480;-82
2024/01/30 06:58:36;;;;;;;23.63;18.40;;;6.80;97.40;;;;;;5097906;28;20032;-82
2024/01/30 07:01:02;;;;;;;23.77;18.75;;;6.80;97.30;;;;;;5081006;28;20047;-82
2024/01/30 07:03:28;;;;;;;26.40;19.55;;;6.80;97.30;;;;;;5081378;28;20209;-83
2024/01/30 07:05:53;;;;;;;25.85;18.45;;;6.80;97.30;;;;;;5081014;28;20087;-84
2024/01/30 07:08:19;;;;;;;27.25;18.88;;;6.80;97.50;;;;;;5064526;28;20043;-82
2024/01/30 07:10:45;;;;;;;26.13;18.45;;;6.80;97.50;;;;;;5080643;28;20043;-82
2024/01/30 07:13:16;;;;;;;24.95;18.50;;;6.90;97.30;;;;;;5097878;28;20035;-82
2024/01/30 07:15:42;;;;;;;24.80;18.40;;;6.90;97.40;;;;;;5081677;28;20114;-81
2024/01/30 07:18:09;;;;;;;26.73;18.98;;;6.90;97.40;;;;;;5064407;28;20407;-82
2024/01/30 07:20:35;;;;;;;27.05;19.08;;;7.00;97.40;;;;;;5115142;28;20124;-81
2024/01/30 07:23:01;;;;;;;25.88;18.02;;;7.00;97.30;;;;;;5097556;28;20071;-82
2024/01/30 07:25:27;;;;;;;25.23;17.90;;;7.00;97.20;;;;;;5080321;28;20042;-82
2024/01/30 07:27:53;;;;;;;24.90;18.17;;;7.10;97.30;;;;;;5063422;28;20198;-80
2024/01/30 07:30:19;;;;;;;25.38;18.05;;;7.10;97.20;;;;;;5113951;28;20036;-81
2024/01/30 07:32:46;;;;;;;26.73;18.65;;;7.20;97.30;;;;;;5096873;28;20036;-83
2024/01/30 07:35:12;;;;;;;23.52;17.98;;;7.20;97.20;;;;;;5113873;28;20373;-82
2024/01/30 07:37:38;;;;;;;25.55;17.83;;;7.20;97.10;;;;;;5114115;28;20053;-81
2024/01/30 07:40:05;;;;;;;24.20;17.35;;;7.20;97.00;;;;;;5063517;28;20539;-82
2024/01/30 07:42:30;;;;;;;23.02;17.23;;;7.20;97.00;;;;;;5079811;28;20395;-81
2024/01/30 07:44:56;;;;;;;26.05;17.48;;;7.30;97.00;;;;;;5080059;28;20039;-82
2024/01/30 07:47:21;;;;;;;26.13;17.38;;;7.30;96.90;;;;;;5080166;28;20078;-84
2024/01/30 07:49:47;;;;;;;24.98;17.90;;;7.30;96.80;;;;;;5063564;28;20039;-82
2024/01/30 07:52:13;;;;;;;21.83;16.30;;;7.30;96.70;;;;;;5113890;28;20510;-83
2024/01/30 07:54:48;;;;;;;27.80;18.67;;;7.30;96.70;;;;;;5096869;28;20035;-82
2024/01/30 07:57:14;;;;;;;25.73;18.13;;;7.30;96.70;;;;;;5079884;28;20046;-82
2024/01/30 07:59:41;;;;;;;23.92;17.42;;;7.30;96.60;;;;;;5079801;28;20039;-82
2024/01/30 08:02:07;;;;;;;21.63;16.88;;;7.30;96.70;;;;;;5096602;28;20067;-81
2024/01/30 08:04:33;;;;;;;21.83;16.92;;;7.30;96.60;;;;;;5079931;28;20046;-82
2024/01/30 08:06:59;;;;;;;25.65;18.13;;;7.30;96.60;;;;;;5079783;28;20039;-82
2024/01/30 08:09:24;;;;;;;26.90;17.33;;;7.30;96.70;;;;;;5096501;28;20124;-81
2024/01/30 08:11:50;;;;;;;27.80;17.13;;;7.30;96.70;;;;;;5096526;28;20084;-83
2024/01/30 08:14:16;;;;;;;26.63;17.25;;;7.30;96.70;;;;;;5060735;28;20048;-83
2024/01/30 08:16:41;;;;;;;25.73;16.98;;;7.30;96.90;;;;;;5057158;28;20047;-83
2024/01/30 08:19:07;;;;;;;23.67;17.75;;;7.40;97.10;;;;;;5056692;28;20042;-82
2024/01/30 08:21:36;;;;;;;22.80;16.85;;;7.50;96.90;;;;;;5087236;28;20134;-83
2024/01/30 08:24:04;;;;;;;23.08;16.38;;;7.60;97.40;;;;;;5066855;28;20048;-83
2024/01/30 08:26:30;;;;;;;24.05;16.77;;;7.70;97.10;;;;;;5089420;28;20051;-83
2024/01/30 08:28:56;;;;;;;25.60;17.27;;;7.90;96.90;;;;;;5089115;28;20052;-83
2024/01/30 08:31:22;;;;;;;26.00;17.60;;;8.00;97.10;;;;;;5054487;28;20420;-81
2024/01/30 08:33:47;;;;;;;21.15;15.93;;;8.00;97.00;;;;;;5072852;28;20031;-83
2024/01/30 08:36:13;;;;;;;21.23;16.48;;;8.10;96.70;;;;;;5071604;28;20496;-82
2024/01/30 08:38:39;;;;;;;21.80;15.63;;;8.10;96.60;;;;;;5072349;28;20063;-83
2024/01/30 08:41:04;;;;;;;24.65;16.98;;;8.20;96.70;;;;;;5103462;28;20049;-84
2024/01/30 08:43:30;;;;;;;21.70;16.65;;;8.20;96.60;;;;;;5054951;28;20663;-88
2024/01/30 08:45:59;;;;;;;25.45;16.02;;;8.30;96.60;;;;;;5060326;28;20236;-81
2024/01/30 08:48:25;;;;;;;23.85;16.50;;;8.30;96.60;;;;;;5064790;28;20172;-83
2024/01/30 08:50:51;;;;;;;23.60;16.90;;;8.40;96.50;;;;;;5089211;28;20507;-81
2024/01/30 08:53:17;;;;;;;27.27;17.60;;;8.50;96.60;;;;;;5087289;28;20480;-80
2024/01/30 08:55:42;;;;;;;21.88;16.13;;;8.50;96.40;;;;;;5088709;28;20122;-80
2024/01/30 08:58:08;;;;;;;21.00;15.73;;;8.50;96.30;;;;;;5105212;28;20054;-81
2024/01/30 09:00:34;;;;;;;21.67;15.60;;;8.50;96.20;;;;;;5087664;28;20044;-81
2024/01/30 09:02:59;;;;;;;20.75;16.02;;;8.50;96.10;;;;;;5053511;28;20456;-81
2024/01/30 09:05:25;;;;;;;22.48;15.40;;;8.50;96.10;;;;;;5088183;28;20161;-81
2024/01/30 09:07:51;;;;;;;27.65;16.63;;;8.50;96.20;;;;;;5055015;28;20066;-80
2024/01/30 09:10:16;;;;;;;20.55;14.90;;;8.50;96.20;;;;;;5088814;28;20044;-80
2024/01/30 09:12:42;;;;;;;23.35;16.38;;;8.50;96.10;;;;;;5070059;28;20047;-81
2024/01/30 09:15:08;;;;;;;19.05;14.43;;;8.50;96.20;;;;;;5083792;28;20178;-81
2024/01/30 09:17:34;;;;;;;22.17;15.65;;;8.60;96.20;;;;;;5064873;28;20121;-81
2024/01/30 09:20:00;;;;;;;20.70;15.27;;;8.70;96.40;;;;;;5071552;28;20056;-81
2024/01/30 09:22:26;;;;;;;23.38;14.13;;;8.70;96.20;;;;;;5061906;28;20036;-80
2024/01/30 09:24:51;;;;;;;21.65;15.48;;;8.80;96.20;;;;;;5058156;28;20051;-81
2024/01/30 09:27:17;;;;;;;21.23;15.57;;;8.80;96.20;;;;;;5071684;28;20127;-81
2024/01/30 09:29:43;;;;;;;20.10;13.77;;;8.90;96.20;;;;;;5104967;28;20051;-81
2024/01/30 09:32:09;;;;;;;28.27;15.20;;;9.00;96.10;;;;;;5086955;28;20427;-81
2024/01/30 09:34:34;;;;;;;22.58;13.73;;;9.00;95.90;;;;;;5075568;28;20059;-81
2024/01/30 09:37:00;;;;;;;19.70;14.88;;;9.00;95.90;;;;;;5094456;28;20044;-81
2024/01/30 09:39:26;;;;;;;20.20;14.80;;;9.00;95.70;;;;;;5075676;28;20134;-81
2024/01/30 09:42:19;;;;;;;20.40;14.15;;;9.00;95.60;;;;;;5110444;28;20070;-80
2024/01/30 09:44:50;;;;;;;23.05;16.23;;;9.00;95.70;;;;;;5094731;28;20134;-81
2024/01/30 09:47:17;;;;;;;23.02;15.50;;;9.00;95.50;;;;;;5100759;28;20046;-81
2024/01/30 09:49:46;;;;;;;27.35;16.30;;;9.00;95.50;;;;;;5118893;28;20391;-84
2024/01/30 09:52:12;;;;;;;26.08;15.20;;;9.00;95.50;;;;;;5101972;28;20078;-83
2024/01/30 09:54:38;;;;;;;22.02;14.07;;;9.00;95.40;;;;;;5102048;28;20188;-82
2024/01/30 09:57:05;;;;;;;18.13;13.55;;;9.00;95.50;;;;;;5087448;28;20043;-83
2024/01/30 09:59:31;;;;;;;24.15;15.25;;;9.00;95.40;;;;;;5081438;28;20093;-82
2024/01/30 10:01:57;;;;;;;23.50;15.70;;;9.00;95.40;;;;;;5076216;28;20512;-81
2024/01/30 10:04:23;;;;;;;21.23;15.55;;;9.10;95.60;;;;;;5098944;28;20179;-81
2024/01/30 10:06:50;;;;;;;19.65;15.95;;;9.10;95.50;;;;;;5100158;28;20036;-81
2024/01/30 10:09:16;;;;;;;23.20;15.02;;;9.20;95.50;;;;;;5098380;28;20072;-81
2024/01/30 10:11:42;;;;;;;19.65;13.95;;;9.30;95.40;;;;;;5076090;28;20048;-81
2024/01/30 10:14:08;;;;;;;18.63;11.80;;;9.40;95.20;;;;;;5098683;28;20031;-81
2024/01/30 10:16:34;;;;;;;22.98;13.05;;;9.50;95.00;;;;;;5098555;28;20487;-80
2024/01/30 10:19:00;;;;;;;20.40;12.45;;;9.50;94.50;;;;;;5098080;28;20122;-81
2024/01/30 10:21:27;;;;;;;17.50;10.25;;;9.50;94.40;;;;;;5114479;28;20104;-81
2024/01/30 10:23:53;;;;;;;21.02;11.55;;;9.50;94.30;;;;;;5078181;28;20044;-81
2024/01/30 10:26:19;;;;;;;17.55;10.40;;;9.50;94.20;;;;;;5114867;28;20066;-81
2024/01/30 10:28:45;;;;;;;17.50;10.00;;;9.50;93.70;;;;;;5098507;28;20058;-80
2024/01/30 10:31:10;;;;;;;16.92;8.65;;;9.50;93.60;;;;;;5096353;28;20039;-82
2024/01/30 10:33:36;;;;;;;16.10;8.70;;;9.40;93.70;;;;;;5078324;28;20043;-81
2024/01/30 10:36:04;;;;;;;14.10;6.63;;;9.40;93.80;;;;;;5080720;28;20059;-81
2024/01/30 10:38:31;;;;;;;18.52;9.45;;;9.40;93.90;;;;;;5073477;28;20042;-81
2024/01/30 10:40:58;;;;;;;22.00;8.52;;;9.40;93.70;;;;;;5112597;28;20108;-81
2024/01/30 10:43:35;;;;;;;19.52;7.40;;;9.40;93.60;;;;;;5068213;28;20043;-81
2024/01/30 10:46:21;;;;;;;13.93;5.10;;;9.30;93.80;;;;;;5111510;28;20495;-81
2024/01/30 10:48:56;;;;;;;8.20;2.60;;;9.30;93.50;;;;;;5112095;28;20057;-81
2024/01/30 10:51:23;;;;;;;5.95;2.90;;;9.30;93.50;;;;;;5110975;28;20051;-80
2024/01/30 10:53:50;;;;;;;14.10;3.60;;;9.30;93.30;;;;;;5094939;28;20130;-81
2024/01/30 10:56:16;;;;;;;7.15;2.17;;;9.20;93.30;;;;;;5110029;28;20085;-80
2024/01/30 10:58:42;;;;;;;6.32;2.08;;;9.20;93.40;;;;;;5094780;28;20562;-82
2024/01/30 11:01:09;;;;;;;7.05;2.83;;;9.20;93.30;;;;;;5110426;28;20069;-81
2024/01/30 11:03:36;;;;;;;4.65;1.90;;;9.20;93.30;;;;;;5092962;28;20415;-81
2024/01/30 11:06:03;;;;;;;5.95;2.25;;;9.30;93.40;;;;;;5089823;28;20445;-80
2024/01/30 11:08:32;;;;;;;2.33;1.17;;;9.30;93.40;;;;;;5076627;28;20040;-83
2024/01/30 11:10:58;;;;;;;5.05;1.65;;;9.30;93.10;;;;;;5111687;28;20484;-82
2024/01/30 11:13:29;;;;;;;4.97;1.30;;;9.30;93.00;;;;;;5087402;28;20491;-82
2024/01/30 11:15:55;;;;;;;5.72;1.40;;;9.30;92.90;;;;;;5110888;28;20047;-82
2024/01/30 11:18:25;;;;;;;7.80;1.70;;;9.30;92.90;;;;;;5093847;28;20032;-79
2024/01/30 11:20:56;;;;;;;3.42;1.40;;;9.20;93.10;;;;;;5111424;28;20168;-82
2024/01/30 11:23:22;;;;;;;4.05;1.77;;;9.10;93.30;;;;;;5110502;28;20399;-83
2024/01/30 11:25:48;;;;;;;3.97;1.90;;;9.10;93.70;;;;;;5113249;28;20036;-83
2024/01/30 11:28:15;;;;;;;5.13;1.67;;;9.20;93.50;;;;;;5097503;28;20034;-82
2024/01/30 11:30:41;;;;;;;6.97;2.33;;;9.10;93.70;;;;;;5085092;28;20035;-83
2024/01/30 11:33:11;;;;;;;6.78;2.28;;;9.20;93.50;;;;;;5079328;28;20036;-82
2024/01/30 11:35:40;;;;;;;6.95;2.63;;;9.20;93.50;;;;;;5079804;28;20059;-82
2024/01/30 11:38:07;;;;;;;8.00;2.50;;;9.10;93.90;;;;;;5097017;28;20044;-82
2024/01/30 11:40:34;;;;;;;7.35;2.97;;;9.10;93.90;;;;;;5097035;28;20039;-83
2024/01/30 11:43:02;;;;;;;8.88;2.63;;;9.00;94.30;;;;;;5096822;28;20126;-80
2024/01/30 11:45:28;;;;;;;12.98;2.95;;;9.00;94.40;;;;;;5104268;27;20044;-84
2024/01/30 11:47:55;;;;;;;10.23;3.13;;;9.00;94.40;;;;;;5071766;28;20050;-84
2024/01/30 11:50:21;;;;;;;11.98;3.67;;;8.90;94.30;;;;;;5112447;28;20044;-83
2024/01/30 11:52:48;;;;;;;9.93;3.83;;;8.90;94.50;;;;;;5113659;28;20044;-83
2024/01/30 11:55:15;;;;;;;12.25;3.05;;;8.80;94.80;;;;;;5096357;28;20127;-84
2024/01/30 11:57:41;;;;;;;9.40;3.33;;;8.80;94.80;;;;;;5095817;28;20110;-84
2024/01/30 12:00:18;;;;;;;9.18;3.80;;;8.90;94.60;;;;;;5095118;28;20487;-84
2024/01/30 12:02:58;;;;;;;8.45;1.88;;;9.00;94.70;;;;;;5112237;28;20462;-83
2024/01/30 12:05:25;;;;;;;7.13;2.40;;;9.00;94.60;;;;;;5095632;28;20204;-83
2024/01/30 12:07:50;;;;;;;8.07;2.45;;;9.00;94.90;;;;;;5112669;28;20039;-82
2024/01/30 12:10:17;;;;;;;8.38;2.05;;;9.10;94.60;;;;;;5095485;28;20043;-83
2024/01/30 12:12:54;;;;;;;12.50;3.00;;;9.10;94.60;;;;;;5095432;28;20407;-83
2024/01/30 12:15:24;;;;;;;4.78;2.15;;;9.00;94.60;;;;;;5079421;28;20035;-82
2024/01/30 12:17:50;;;;;;;2.78;1.75;;;9.00;94.90;;;;;;5079391;28;20059;-82
2024/01/30 12:20:18;;;;;;;5.07;2.50;;;9.00;95.10;;;;;;5079875;28;20480;-83
2024/01/30 12:22:46;;;;;;;7.30;2.67;;;9.00;95.00;;;;;;5096267;28;20039;-83
2024/01/30 12:25:13;;;;;;;8.93;3.22;;;9.00;94.70;;;;;;5096263;28;20040;-82
2024/01/30 12:27:42;;;;;;;11.43;3.72;;;9.00;95.00;;;;;;5096208;28;20043;-81
2024/01/30 12:30:08;;;;;;;6.28;3.47;;;9.00;95.00;;;;;;5079404;28;20043;-82
2024/01/30 12:32:36;;;;;;;9.77;3.17;;;8.90;95.30;;;;;;5079034;28;20043;-82
2024/01/30 12:35:02;;;;;;;8.27;2.45;;;8.80;95.50;;;;;;5078981;28;20096;-82
2024/01/30 12:37:29;;;;;;;10.57;3.92;;;8.90;95.30;;;;;;5079415;28;20070;-81